sensor_id;sensor_type;location;lat;lon;timestamp;P1;durP1;ratioP1;P2;durP2;ratioP2
24739;SDS011;45234;48.148;17.128;2022-12-18T00:01:13;31.98;;;15.90;;
24739;SDS011;45234;48.148;17.128;2022-12-18T00:03:53;34.30;;;16.50;;
24739;SDS011;45234;48.148;17.128;2022-12-18T00:06:24;34.05;;;17.02;;
24739;SDS011;45234;48.148;17.128;2022-12-18T00:08:52;28.60;;;15.13;;
24739;SDS011;45234;48.148;17.128;2022-12-18T00:11:21;34.20;;;16.17;;
24739;SDS011;45234;48.148;17.128;2022-12-18T00:13:51;28.63;;;15.30;;
24739;SDS011;45234;48.148;17.128;2022-12-18T00:16:21;32.50;;;16.83;;
24739;SDS011;45234;48.148;17.128;2022-12-18T00:18:50;27.92;;;15.18;;
24739;SDS011;45234;48.148;17.128;2022-12-18T00:21:19;30.67;;;15.63;;
24739;SDS011;45234;48.148;17.128;2022-12-18T00:23:46;35.80;;;16.80;;
24739;SDS011;45234;48.148;17.128;2022-12-18T00:26:15;35.53;;;15.77;;
24739;SDS011;45234;48.148;17.128;2022-12-18T00:28:50;33.85;;;16.88;;
24739;SDS011;45234;48.148;17.128;2022-12-18T00:31:20;33.50;;;15.65;;
24739;SDS011;45234;48.148;17.128;2022-12-18T00:33:51;31.15;;;15.80;;
24739;SDS011;45234;48.148;17.128;2022-12-18T00:36:24;36.20;;;17.17;;
24739;SDS011;45234;48.148;17.128;2022-12-18T00:38:57;34.70;;;18.85;;
24739;SDS011;45234;48.148;17.128;2022-12-18T00:41:25;32.33;;;16.15;;
24739;SDS011;45234;48.148;17.128;2022-12-18T00:44:13;36.22;;;17.35;;
24739;SDS011;45234;48.148;17.128;2022-12-18T00:46:43;34.05;;;17.25;;
24739;SDS011;45234;48.148;17.128;2022-12-18T00:49:10;35.15;;;17.88;;
24739;SDS011;45234;48.148;17.128;2022-12-18T00:51:37;33.33;;;15.82;;
24739;SDS011;45234;48.148;17.128;2022-12-18T00:54:04;33.67;;;16.83;;
24739;SDS011;45234;48.148;17.128;2022-12-18T00:56:31;35.95;;;17.67;;
24739;SDS011;45234;48.148;17.128;2022-12-18T00:59:04;36.28;;;16.88;;
24739;SDS011;45234;48.148;17.128;2022-12-18T01:01:31;33.90;;;17.67;;
24739;SDS011;45234;48.148;17.128;2022-12-18T01:03:59;35.17;;;17.13;;
24739;SDS011;45234;48.148;17.128;2022-12-18T01:06:27;31.13;;;18.02;;
24739;SDS011;45234;48.148;17.128;2022-12-18T01:08:54;37.65;;;18.20;;
24739;SDS011;45234;48.148;17.128;2022-12-18T01:11:21;33.83;;;17.30;;
24739;SDS011;45234;48.148;17.128;2022-12-18T01:13:48;35.83;;;17.25;;
24739;SDS011;45234;48.148;17.128;2022-12-18T01:16:15;44.95;;;19.52;;
24739;SDS011;45234;48.148;17.128;2022-12-18T01:18:43;35.45;;;17.52;;
24739;SDS011;45234;48.148;17.128;2022-12-18T01:21:12;37.90;;;19.35;;
24739;SDS011;45234;48.148;17.128;2022-12-18T01:23:40;36.92;;;18.33;;
24739;SDS011;45234;48.148;17.128;2022-12-18T01:26:11;35.92;;;17.98;;
24739;SDS011;45234;48.148;17.128;2022-12-18T01:28:42;36.25;;;17.70;;
24739;SDS011;45234;48.148;17.128;2022-12-18T01:31:13;38.03;;;18.02;;
24739;SDS011;45234;48.148;17.128;2022-12-18T01:33:48;34.95;;;18.25;;
24739;SDS011;45234;48.148;17.128;2022-12-18T01:36:17;37.70;;;18.50;;
24739;SDS011;45234;48.148;17.128;2022-12-18T01:38:51;38.65;;;18.00;;
24739;SDS011;45234;48.148;17.128;2022-12-18T01:41:20;37.20;;;18.17;;
24739;SDS011;45234;48.148;17.128;2022-12-18T01:43:50;36.95;;;19.25;;
24739;SDS011;45234;48.148;17.128;2022-12-18T01:46:19;39.08;;;18.85;;
24739;SDS011;45234;48.148;17.128;2022-12-18T01:48:47;35.88;;;17.90;;
24739;SDS011;45234;48.148;17.128;2022-12-18T01:51:18;36.08;;;17.98;;
24739;SDS011;45234;48.148;17.128;2022-12-18T01:53:46;34.03;;;17.48;;
24739;SDS011;45234;48.148;17.128;2022-12-18T01:56:16;34.88;;;18.23;;
24739;SDS011;45234;48.148;17.128;2022-12-18T01:58:51;36.50;;;17.73;;
24739;SDS011;45234;48.148;17.128;2022-12-18T02:01:37;35.50;;;18.10;;
24739;SDS011;45234;48.148;17.128;2022-12-18T02:04:23;36.72;;;18.10;;
24739;SDS011;45234;48.148;17.128;2022-12-18T02:07:10;34.80;;;16.25;;
24739;SDS011;45234;48.148;17.128;2022-12-18T02:09:58;33.80;;;16.27;;
24739;SDS011;45234;48.148;17.128;2022-12-18T02:15:08;32.80;;;16.45;;
24739;SDS011;45234;48.148;17.128;2022-12-18T02:17:47;31.70;;;16.65;;
24739;SDS011;45234;48.148;17.128;2022-12-18T02:20:24;37.30;;;16.73;;
24739;SDS011;45234;48.148;17.128;2022-12-18T02:28:47;40.58;;;18.35;;
24739;SDS011;45234;48.148;17.128;2022-12-18T02:31:38;31.77;;;17.15;;
24739;SDS011;45234;48.148;17.128;2022-12-18T02:34:13;35.38;;;17.85;;
24739;SDS011;45234;48.148;17.128;2022-12-18T02:36:43;33.35;;;18.65;;
24739;SDS011;45234;48.148;17.128;2022-12-18T02:39:11;34.25;;;18.02;;
24739;SDS011;45234;48.148;17.128;2022-12-18T02:41:49;35.30;;;17.67;;
24739;SDS011;45234;48.148;17.128;2022-12-18T02:44:18;37.92;;;18.98;;
24739;SDS011;45234;48.148;17.128;2022-12-18T02:46:46;40.40;;;18.70;;
24739;SDS011;45234;48.148;17.128;2022-12-18T02:49:21;42.08;;;19.67;;
24739;SDS011;45234;48.148;17.128;2022-12-18T02:52:01;37.17;;;19.05;;
24739;SDS011;45234;48.148;17.128;2022-12-18T02:57:36;40.33;;;19.83;;
24739;SDS011;45234;48.148;17.128;2022-12-18T03:00:37;39.15;;;18.08;;
24739;SDS011;45234;48.148;17.128;2022-12-18T03:03:18;40.42;;;19.67;;
24739;SDS011;45234;48.148;17.128;2022-12-18T03:06:00;36.88;;;18.45;;
24739;SDS011;45234;48.148;17.128;2022-12-18T03:08:31;35.50;;;18.77;;
24739;SDS011;45234;48.148;17.128;2022-12-18T03:11:08;39.50;;;19.33;;
24739;SDS011;45234;48.148;17.128;2022-12-18T03:13:45;36.58;;;18.92;;
24739;SDS011;45234;48.148;17.128;2022-12-18T03:16:20;38.67;;;19.13;;
24739;SDS011;45234;48.148;17.128;2022-12-18T03:18:53;39.20;;;18.75;;
24739;SDS011;45234;48.148;17.128;2022-12-18T03:21:37;40.65;;;20.45;;
24739;SDS011;45234;48.148;17.128;2022-12-18T03:24:30;39.70;;;19.43;;
24739;SDS011;45234;48.148;17.128;2022-12-18T03:27:02;44.08;;;21.05;;
24739;SDS011;45234;48.148;17.128;2022-12-18T03:29:38;43.13;;;20.45;;
24739;SDS011;45234;48.148;17.128;2022-12-18T03:32:31;37.13;;;18.98;;
24739;SDS011;45234;48.148;17.128;2022-12-18T03:35:05;44.55;;;21.17;;
24739;SDS011;45234;48.148;17.128;2022-12-18T03:37:36;44.55;;;20.85;;
24739;SDS011;45234;48.148;17.128;2022-12-18T03:40:03;43.50;;;21.30;;
24739;SDS011;45234;48.148;17.128;2022-12-18T03:42:34;38.78;;;20.67;;
24739;SDS011;45234;48.148;17.128;2022-12-18T03:50:54;38.13;;;20.27;;
24739;SDS011;45234;48.148;17.128;2022-12-18T03:56:19;42.85;;;21.75;;
24739;SDS011;45234;48.148;17.128;2022-12-18T03:58:50;42.00;;;20.67;;
24739;SDS011;45234;48.148;17.128;2022-12-18T04:01:24;44.30;;;21.90;;
24739;SDS011;45234;48.148;17.128;2022-12-18T04:03:59;43.33;;;20.88;;
24739;SDS011;45234;48.148;17.128;2022-12-18T04:06:31;41.80;;;20.48;;
24739;SDS011;45234;48.148;17.128;2022-12-18T04:08:59;40.17;;;20.90;;
24739;SDS011;45234;48.148;17.128;2022-12-18T04:11:28;45.28;;;21.40;;
24739;SDS011;45234;48.148;17.128;2022-12-18T04:13:56;44.40;;;21.00;;
24739;SDS011;45234;48.148;17.128;2022-12-18T04:16:24;41.33;;;20.83;;
24739;SDS011;45234;48.148;17.128;2022-12-18T04:18:56;46.78;;;22.00;;
24739;SDS011;45234;48.148;17.128;2022-12-18T04:21:25;42.50;;;21.33;;
24739;SDS011;45234;48.148;17.128;2022-12-18T04:23:52;46.17;;;22.30;;
24739;SDS011;45234;48.148;17.128;2022-12-18T04:26:20;45.35;;;21.58;;
24739;SDS011;45234;48.148;17.128;2022-12-18T04:28:57;46.03;;;21.00;;
24739;SDS011;45234;48.148;17.128;2022-12-18T04:31:24;43.45;;;21.02;;
24739;SDS011;45234;48.148;17.128;2022-12-18T04:33:51;45.83;;;21.45;;
24739;SDS011;45234;48.148;17.128;2022-12-18T04:36:18;46.08;;;22.35;;
24739;SDS011;45234;48.148;17.128;2022-12-18T04:38:45;43.78;;;22.45;;
24739;SDS011;45234;48.148;17.128;2022-12-18T04:41:14;48.33;;;23.05;;
24739;SDS011;45234;48.148;17.128;2022-12-18T04:43:44;45.47;;;21.02;;
24739;SDS011;45234;48.148;17.128;2022-12-18T04:46:11;45.03;;;22.48;;
24739;SDS011;45234;48.148;17.128;2022-12-18T04:48:38;47.78;;;22.77;;
24739;SDS011;45234;48.148;17.128;2022-12-18T04:51:05;47.10;;;22.60;;
24739;SDS011;45234;48.148;17.128;2022-12-18T04:53:33;45.53;;;21.17;;
24739;SDS011;45234;48.148;17.128;2022-12-18T04:56:18;47.92;;;24.05;;
24739;SDS011;45234;48.148;17.128;2022-12-18T04:58:45;46.92;;;22.45;;
24739;SDS011;45234;48.148;17.128;2022-12-18T05:01:12;42.53;;;22.10;;
24739;SDS011;45234;48.148;17.128;2022-12-18T05:03:40;46.22;;;23.33;;
24739;SDS011;45234;48.148;17.128;2022-12-18T05:06:09;48.80;;;22.83;;
24739;SDS011;45234;48.148;17.128;2022-12-18T05:08:37;43.50;;;20.98;;
24739;SDS011;45234;48.148;17.128;2022-12-18T05:11:11;48.35;;;21.48;;
24739;SDS011;45234;48.148;17.128;2022-12-18T05:13:42;45.70;;;21.85;;
24739;SDS011;45234;48.148;17.128;2022-12-18T05:16:10;48.70;;;22.30;;
24739;SDS011;45234;48.148;17.128;2022-12-18T05:18:39;47.80;;;24.00;;
24739;SDS011;45234;48.148;17.128;2022-12-18T05:21:06;47.83;;;22.25;;
24739;SDS011;45234;48.148;17.128;2022-12-18T05:23:32;46.75;;;22.65;;
24739;SDS011;45234;48.148;17.128;2022-12-18T05:26:01;51.33;;;23.02;;
24739;SDS011;45234;48.148;17.128;2022-12-18T05:28:30;45.40;;;22.23;;
24739;SDS011;45234;48.148;17.128;2022-12-18T05:30:58;46.88;;;22.73;;
24739;SDS011;45234;48.148;17.128;2022-12-18T05:33:31;45.75;;;23.08;;
24739;SDS011;45234;48.148;17.128;2022-12-18T05:36:00;48.67;;;22.85;;
24739;SDS011;45234;48.148;17.128;2022-12-18T05:38:29;46.95;;;22.58;;
24739;SDS011;45234;48.148;17.128;2022-12-18T05:40:56;49.17;;;22.95;;
24739;SDS011;45234;48.148;17.128;2022-12-18T05:43:24;44.45;;;22.65;;
24739;SDS011;45234;48.148;17.128;2022-12-18T05:45:52;48.33;;;23.00;;
24739;SDS011;45234;48.148;17.128;2022-12-18T05:48:20;48.25;;;22.38;;
24739;SDS011;45234;48.148;17.128;2022-12-18T05:50:48;49.65;;;23.48;;
24739;SDS011;45234;48.148;17.128;2022-12-18T05:53:16;48.17;;;22.67;;
24739;SDS011;45234;48.148;17.128;2022-12-18T05:55:45;45.25;;;22.15;;
24739;SDS011;45234;48.148;17.128;2022-12-18T05:58:12;47.97;;;23.27;;
24739;SDS011;45234;48.148;17.128;2022-12-18T06:00:41;43.60;;;21.83;;
24739;SDS011;45234;48.148;17.128;2022-12-18T06:03:10;50.95;;;23.30;;
24739;SDS011;45234;48.148;17.128;2022-12-18T06:05:38;47.42;;;23.10;;
24739;SDS011;45234;48.148;17.128;2022-12-18T06:08:09;47.55;;;23.45;;
24739;SDS011;45234;48.148;17.128;2022-12-18T06:10:37;49.78;;;24.08;;
24739;SDS011;45234;48.148;17.128;2022-12-18T06:13:04;48.90;;;23.20;;
24739;SDS011;45234;48.148;17.128;2022-12-18T06:15:32;54.13;;;22.98;;
24739;SDS011;45234;48.148;17.128;2022-12-18T06:18:01;51.78;;;22.98;;
24739;SDS011;45234;48.148;17.128;2022-12-18T06:20:28;48.55;;;22.10;;
24739;SDS011;45234;48.148;17.128;2022-12-18T06:22:58;56.63;;;24.40;;
24739;SDS011;45234;48.148;17.128;2022-12-18T06:25:25;57.75;;;26.23;;
24739;SDS011;45234;48.148;17.128;2022-12-18T06:27:52;63.53;;;27.13;;
24739;SDS011;45234;48.148;17.128;2022-12-18T06:30:19;71.20;;;31.10;;
24739;SDS011;45234;48.148;17.128;2022-12-18T06:32:47;63.60;;;28.10;;
24739;SDS011;45234;48.148;17.128;2022-12-18T06:35:20;63.35;;;27.63;;
24739;SDS011;45234;48.148;17.128;2022-12-18T06:37:48;63.80;;;28.33;;
24739;SDS011;45234;48.148;17.128;2022-12-18T06:40:15;79.10;;;30.77;;
24739;SDS011;45234;48.148;17.128;2022-12-18T06:42:41;82.50;;;32.30;;
24739;SDS011;45234;48.148;17.128;2022-12-18T06:45:08;75.53;;;31.27;;
24739;SDS011;45234;48.148;17.128;2022-12-18T06:47:37;80.05;;;31.55;;
24739;SDS011;45234;48.148;17.128;2022-12-18T06:50:03;81.70;;;32.30;;
24739;SDS011;45234;48.148;17.128;2022-12-18T06:52:31;72.25;;;30.38;;
24739;SDS011;45234;48.148;17.128;2022-12-18T06:54:59;77.80;;;31.88;;
24739;SDS011;45234;48.148;17.128;2022-12-18T06:57:27;81.70;;;32.28;;
24739;SDS011;45234;48.148;17.128;2022-12-18T06:59:53;73.28;;;29.48;;
24739;SDS011;45234;48.148;17.128;2022-12-18T07:02:20;48.17;;;23.60;;
24739;SDS011;45234;48.148;17.128;2022-12-18T07:04:47;51.53;;;23.55;;
24739;SDS011;45234;48.148;17.128;2022-12-18T07:07:14;56.55;;;24.98;;
24739;SDS011;45234;48.148;17.128;2022-12-18T07:09:41;61.15;;;25.80;;
24739;SDS011;45234;48.148;17.128;2022-12-18T07:12:08;63.00;;;25.13;;
24739;SDS011;45234;48.148;17.128;2022-12-18T07:14:34;54.50;;;23.92;;
24739;SDS011;45234;48.148;17.128;2022-12-18T07:17:01;51.20;;;23.70;;
24739;SDS011;45234;48.148;17.128;2022-12-18T07:19:29;47.58;;;21.25;;
24739;SDS011;45234;48.148;17.128;2022-12-18T07:21:56;44.95;;;21.23;;
24739;SDS011;45234;48.148;17.128;2022-12-18T07:24:24;41.83;;;20.15;;
24739;SDS011;45234;48.148;17.128;2022-12-18T07:26:50;48.90;;;21.48;;
24739;SDS011;45234;48.148;17.128;2022-12-18T07:29:17;43.55;;;20.63;;
24739;SDS011;45234;48.148;17.128;2022-12-18T07:31:44;41.88;;;20.40;;
24739;SDS011;45234;48.148;17.128;2022-12-18T07:34:11;41.08;;;20.63;;
24739;SDS011;45234;48.148;17.128;2022-12-18T07:36:40;43.88;;;19.52;;
24739;SDS011;45234;48.148;17.128;2022-12-18T07:39:07;40.65;;;19.60;;
24739;SDS011;45234;48.148;17.128;2022-12-18T07:41:34;44.28;;;20.83;;
24739;SDS011;45234;48.148;17.128;2022-12-18T07:44:08;38.25;;;20.00;;
24739;SDS011;45234;48.148;17.128;2022-12-18T07:46:36;43.08;;;20.92;;
24739;SDS011;45234;48.148;17.128;2022-12-18T07:49:03;39.00;;;19.50;;
24739;SDS011;45234;48.148;17.128;2022-12-18T07:51:30;41.47;;;21.05;;
24739;SDS011;45234;48.148;17.128;2022-12-18T07:53:56;43.55;;;20.08;;
24739;SDS011;45234;48.148;17.128;2022-12-18T07:56:23;40.70;;;21.27;;
24739;SDS011;45234;48.148;17.128;2022-12-18T07:58:53;42.92;;;20.77;;
24739;SDS011;45234;48.148;17.128;2022-12-18T08:01:21;39.70;;;20.20;;
24739;SDS011;45234;48.148;17.128;2022-12-18T08:03:48;44.00;;;22.75;;
24739;SDS011;45234;48.148;17.128;2022-12-18T08:06:17;45.95;;;23.13;;
24739;SDS011;45234;48.148;17.128;2022-12-18T08:08:47;48.58;;;23.88;;
24739;SDS011;45234;48.148;17.128;2022-12-18T08:11:14;49.00;;;24.38;;
24739;SDS011;45234;48.148;17.128;2022-12-18T08:13:41;49.70;;;24.95;;
24739;SDS011;45234;48.148;17.128;2022-12-18T08:16:08;50.70;;;25.88;;
24739;SDS011;45234;48.148;17.128;2022-12-18T08:18:36;46.03;;;23.80;;
24739;SDS011;45234;48.148;17.128;2022-12-18T08:21:09;49.80;;;25.10;;
24739;SDS011;45234;48.148;17.128;2022-12-18T08:23:38;50.78;;;25.02;;
24739;SDS011;45234;48.148;17.128;2022-12-18T08:26:08;54.80;;;26.75;;
24739;SDS011;45234;48.148;17.128;2022-12-18T08:28:36;46.42;;;24.60;;
24739;SDS011;45234;48.148;17.128;2022-12-18T08:31:03;50.72;;;25.98;;
24739;SDS011;45234;48.148;17.128;2022-12-18T08:33:31;54.35;;;27.63;;
24739;SDS011;45234;48.148;17.128;2022-12-18T08:35:59;48.22;;;25.13;;
24739;SDS011;45234;48.148;17.128;2022-12-18T08:38:26;54.90;;;25.83;;
24739;SDS011;45234;48.148;17.128;2022-12-18T08:41:03;52.63;;;27.00;;
24739;SDS011;45234;48.148;17.128;2022-12-18T08:43:32;52.58;;;26.52;;
24739;SDS011;45234;48.148;17.128;2022-12-18T08:46:18;51.58;;;28.02;;
24739;SDS011;45234;48.148;17.128;2022-12-18T08:48:46;51.50;;;26.20;;
24739;SDS011;45234;48.148;17.128;2022-12-18T08:51:15;56.72;;;27.17;;
24739;SDS011;45234;48.148;17.128;2022-12-18T08:53:43;50.08;;;24.63;;
24739;SDS011;45234;48.148;17.128;2022-12-18T08:56:10;57.20;;;26.88;;
24739;SDS011;45234;48.148;17.128;2022-12-18T08:58:38;56.25;;;27.65;;
24739;SDS011;45234;48.148;17.128;2022-12-18T09:01:07;52.65;;;26.85;;
24739;SDS011;45234;48.148;17.128;2022-12-18T09:03:35;55.03;;;27.52;;
24739;SDS011;45234;48.148;17.128;2022-12-18T09:06:04;55.30;;;27.50;;
24739;SDS011;45234;48.148;17.128;2022-12-18T09:08:31;51.60;;;25.63;;
24739;SDS011;45234;48.148;17.128;2022-12-18T09:11:02;52.58;;;27.02;;
24739;SDS011;45234;48.148;17.128;2022-12-18T09:13:29;51.67;;;25.67;;
24739;SDS011;45234;48.148;17.128;2022-12-18T09:15:56;49.63;;;25.60;;
24739;SDS011;45234;48.148;17.128;2022-12-18T09:18:23;48.25;;;22.75;;
24739;SDS011;45234;48.148;17.128;2022-12-18T09:20:50;47.03;;;22.75;;
24739;SDS011;45234;48.148;17.128;2022-12-18T09:23:18;44.88;;;22.73;;
24739;SDS011;45234;48.148;17.128;2022-12-18T09:25:46;47.15;;;23.27;;
24739;SDS011;45234;48.148;17.128;2022-12-18T09:28:15;48.28;;;23.85;;
24739;SDS011;45234;48.148;17.128;2022-12-18T09:30:44;48.75;;;24.38;;
24739;SDS011;45234;48.148;17.128;2022-12-18T09:33:13;49.53;;;23.50;;
24739;SDS011;45234;48.148;17.128;2022-12-18T09:35:41;57.00;;;24.95;;
24739;SDS011;45234;48.148;17.128;2022-12-18T09:38:12;43.67;;;22.42;;
24739;SDS011;45234;48.148;17.128;2022-12-18T09:40:53;49.85;;;23.70;;
24739;SDS011;45234;48.148;17.128;2022-12-18T09:43:51;47.55;;;24.02;;
24739;SDS011;45234;48.148;17.128;2022-12-18T09:46:28;53.05;;;23.73;;
24739;SDS011;45234;48.148;17.128;2022-12-18T09:49:02;51.50;;;23.10;;
24739;SDS011;45234;48.148;17.128;2022-12-18T09:51:37;50.17;;;23.08;;
24739;SDS011;45234;48.148;17.128;2022-12-18T09:54:23;46.95;;;22.63;;
24739;SDS011;45234;48.148;17.128;2022-12-18T09:57:01;46.90;;;23.08;;
24739;SDS011;45234;48.148;17.128;2022-12-18T09:59:37;49.67;;;22.58;;
24739;SDS011;45234;48.148;17.128;2022-12-18T10:02:15;49.50;;;24.15;;
24739;SDS011;45234;48.148;17.128;2022-12-18T10:04:52;49.67;;;24.13;;
24739;SDS011;45234;48.148;17.128;2022-12-18T10:07:27;51.75;;;26.95;;
24739;SDS011;45234;48.148;17.128;2022-12-18T10:13:02;57.78;;;28.30;;
24739;SDS011;45234;48.148;17.128;2022-12-18T10:20:51;49.45;;;25.67;;
24739;SDS011;45234;48.148;17.128;2022-12-18T10:23:30;53.75;;;26.08;;
24739;SDS011;45234;48.148;17.128;2022-12-18T10:26:15;56.75;;;26.55;;
24739;SDS011;45234;48.148;17.128;2022-12-18T10:30:04;50.78;;;25.85;;
24739;SDS011;45234;48.148;17.128;2022-12-18T10:32:41;52.17;;;25.30;;
24739;SDS011;45234;48.148;17.128;2022-12-18T10:35:20;47.03;;;24.38;;
24739;SDS011;45234;48.148;17.128;2022-12-18T10:37:59;46.92;;;25.30;;
24739;SDS011;45234;48.148;17.128;2022-12-18T10:40:29;46.40;;;24.42;;
24739;SDS011;45234;48.148;17.128;2022-12-18T10:43:03;46.33;;;23.85;;
24739;SDS011;45234;48.148;17.128;2022-12-18T10:45:31;47.05;;;25.70;;
24739;SDS011;45234;48.148;17.128;2022-12-18T10:47:58;49.03;;;25.63;;
24739;SDS011;45234;48.148;17.128;2022-12-18T10:50:34;54.03;;;27.08;;
24739;SDS011;45234;48.148;17.128;2022-12-18T10:53:24;53.05;;;26.38;;
24739;SDS011;45234;48.148;17.128;2022-12-18T10:55:54;48.67;;;26.10;;
24739;SDS011;45234;48.148;17.128;2022-12-18T10:58:27;49.30;;;26.80;;
24739;SDS011;45234;48.148;17.128;2022-12-18T11:01:16;50.90;;;26.45;;
24739;SDS011;45234;48.148;17.128;2022-12-18T11:06:18;54.72;;;29.88;;
24739;SDS011;45234;48.148;17.128;2022-12-18T11:09:03;55.47;;;28.45;;
24739;SDS011;45234;48.148;17.128;2022-12-18T11:11:54;52.53;;;28.30;;
24739;SDS011;45234;48.148;17.128;2022-12-18T11:14:24;47.97;;;27.55;;
24739;SDS011;45234;48.148;17.128;2022-12-18T11:16:58;52.33;;;26.92;;
24739;SDS011;45234;48.148;17.128;2022-12-18T11:19:45;52.30;;;28.67;;
24739;SDS011;45234;48.148;17.128;2022-12-18T11:25:01;55.35;;;29.85;;
24739;SDS011;45234;48.148;17.128;2022-12-18T11:28:01;58.83;;;33.45;;
24739;SDS011;45234;48.148;17.128;2022-12-18T11:30:31;53.28;;;31.40;;
24739;SDS011;45234;48.148;17.128;2022-12-18T11:35:47;53.05;;;32.10;;
24739;SDS011;45234;48.148;17.128;2022-12-18T11:38:20;48.40;;;27.17;;
24739;SDS011;45234;48.148;17.128;2022-12-18T11:43:28;41.53;;;23.35;;
24739;SDS011;45234;48.148;17.128;2022-12-18T11:46:17;42.63;;;22.50;;
24739;SDS011;45234;48.148;17.128;2022-12-18T11:48:54;45.95;;;22.38;;
24739;SDS011;45234;48.148;17.128;2022-12-18T11:51:34;46.40;;;22.73;;
24739;SDS011;45234;48.148;17.128;2022-12-18T11:54:14;47.05;;;24.58;;
24739;SDS011;45234;48.148;17.128;2022-12-18T11:59:49;46.25;;;24.20;;
24739;SDS011;45234;48.148;17.128;2022-12-18T12:16:24;44.25;;;22.85;;
24739;SDS011;45234;48.148;17.128;2022-12-18T12:21:39;46.55;;;23.17;;
24739;SDS011;45234;48.148;17.128;2022-12-18T12:24:13;47.65;;;22.92;;
24739;SDS011;45234;48.148;17.128;2022-12-18T12:38:00;42.47;;;22.48;;
24739;SDS011;45234;48.148;17.128;2022-12-18T12:40:30;48.40;;;24.05;;
24739;SDS011;45234;48.148;17.128;2022-12-18T12:46:16;42.13;;;21.98;;
24739;SDS011;45234;48.148;17.128;2022-12-18T12:48:48;43.28;;;21.08;;
24739;SDS011;45234;48.148;17.128;2022-12-18T12:53:48;44.53;;;22.35;;
24739;SDS011;45234;48.148;17.128;2022-12-18T12:56:16;46.20;;;22.75;;
24739;SDS011;45234;48.148;17.128;2022-12-18T13:07:24;42.10;;;20.52;;
24739;SDS011;45234;48.148;17.128;2022-12-18T13:12:56;44.05;;;21.05;;
24739;SDS011;45234;48.148;17.128;2022-12-18T13:16:04;40.15;;;19.15;;
24739;SDS011;45234;48.148;17.128;2022-12-18T13:18:33;36.25;;;19.95;;
24739;SDS011;45234;48.148;17.128;2022-12-18T13:23:49;44.05;;;20.88;;
24739;SDS011;45234;48.148;17.128;2022-12-18T13:28:51;44.30;;;22.50;;
24739;SDS011;45234;48.148;17.128;2022-12-18T13:34:16;39.05;;;19.92;;
24739;SDS011;45234;48.148;17.128;2022-12-18T13:39:58;40.92;;;21.40;;
24739;SDS011;45234;48.148;17.128;2022-12-18T13:42:35;42.78;;;20.10;;
24739;SDS011;45234;48.148;17.128;2022-12-18T13:45:41;41.92;;;20.95;;
24739;SDS011;45234;48.148;17.128;2022-12-18T13:48:14;45.83;;;21.45;;
24739;SDS011;45234;48.148;17.128;2022-12-18T13:50:52;45.72;;;21.80;;
24739;SDS011;45234;48.148;17.128;2022-12-18T13:53:44;49.47;;;23.65;;
24739;SDS011;45234;48.148;17.128;2022-12-18T13:56:23;49.08;;;23.38;;
24739;SDS011;45234;48.148;17.128;2022-12-18T14:04:29;44.30;;;24.55;;
24739;SDS011;45234;48.148;17.128;2022-12-18T14:07:03;43.28;;;23.02;;
24739;SDS011;45234;48.148;17.128;2022-12-18T14:09:40;47.00;;;23.45;;
24739;SDS011;45234;48.148;17.128;2022-12-18T14:12:19;47.70;;;22.55;;
24739;SDS011;45234;48.148;17.128;2022-12-18T14:20:53;41.38;;;20.35;;
24739;SDS011;45234;48.148;17.128;2022-12-18T14:25:59;48.47;;;22.27;;
24739;SDS011;45234;48.148;17.128;2022-12-18T14:28:30;43.22;;;21.33;;
24739;SDS011;45234;48.148;17.128;2022-12-18T14:30:57;45.67;;;22.13;;
24739;SDS011;45234;48.148;17.128;2022-12-18T14:33:25;42.13;;;22.33;;
24739;SDS011;45234;48.148;17.128;2022-12-18T14:38:21;49.00;;;24.10;;
24739;SDS011;45234;48.148;17.128;2022-12-18T14:40:54;46.67;;;24.15;;
24739;SDS011;45234;48.148;17.128;2022-12-18T14:43:33;50.50;;;23.90;;
24739;SDS011;45234;48.148;17.128;2022-12-18T14:46:19;61.30;;;28.35;;
24739;SDS011;45234;48.148;17.128;2022-12-18T14:48:55;59.38;;;31.13;;
24739;SDS011;45234;48.148;17.128;2022-12-18T14:51:25;64.22;;;30.40;;
24739;SDS011;45234;48.148;17.128;2022-12-18T14:53:54;71.82;;;31.88;;
24739;SDS011;45234;48.148;17.128;2022-12-18T14:56:27;71.72;;;31.65;;
24739;SDS011;45234;48.148;17.128;2022-12-18T14:59:00;67.93;;;31.52;;
24739;SDS011;45234;48.148;17.128;2022-12-18T15:01:39;73.82;;;32.38;;
24739;SDS011;45234;48.148;17.128;2022-12-18T15:04:25;73.25;;;32.58;;
24739;SDS011;45234;48.148;17.128;2022-12-18T15:07:05;66.38;;;31.92;;
24739;SDS011;45234;48.148;17.128;2022-12-18T15:10:00;70.70;;;32.58;;
24739;SDS011;45234;48.148;17.128;2022-12-18T15:12:42;68.68;;;31.60;;
24739;SDS011;45234;48.148;17.128;2022-12-18T15:20:31;68.95;;;32.53;;
24739;SDS011;45234;48.148;17.128;2022-12-18T15:22:59;73.60;;;34.00;;
24739;SDS011;45234;48.148;17.128;2022-12-18T15:25:36;81.28;;;34.50;;
24739;SDS011;45234;48.148;17.128;2022-12-18T15:28:13;67.07;;;31.15;;
24739;SDS011;45234;48.148;17.128;2022-12-18T15:30:58;73.10;;;32.63;;
24739;SDS011;45234;48.148;17.128;2022-12-18T15:33:31;65.10;;;31.70;;
24739;SDS011;45234;48.148;17.128;2022-12-18T15:36:00;66.00;;;30.25;;
24739;SDS011;45234;48.148;17.128;2022-12-18T15:38:30;67.50;;;32.55;;
24739;SDS011;45234;48.148;17.128;2022-12-18T15:40:57;72.32;;;33.63;;
24739;SDS011;45234;48.148;17.128;2022-12-18T15:43:25;74.57;;;33.55;;
24739;SDS011;45234;48.148;17.128;2022-12-18T15:46:10;74.13;;;33.33;;
24739;SDS011;45234;48.148;17.128;2022-12-18T15:48:41;66.68;;;31.60;;
24739;SDS011;45234;48.148;17.128;2022-12-18T15:51:22;75.55;;;32.75;;
24739;SDS011;45234;48.148;17.128;2022-12-18T15:53:58;73.90;;;31.70;;
24739;SDS011;45234;48.148;17.128;2022-12-18T15:56:29;67.30;;;32.38;;
24739;SDS011;45234;48.148;17.128;2022-12-18T15:59:16;72.03;;;32.47;;
24739;SDS011;45234;48.148;17.128;2022-12-18T16:01:46;75.93;;;34.60;;
24739;SDS011;45234;48.148;17.128;2022-12-18T16:04:18;66.13;;;30.98;;
24739;SDS011;45234;48.148;17.128;2022-12-18T16:06:49;65.03;;;31.50;;
24739;SDS011;45234;48.148;17.128;2022-12-18T16:09:37;65.10;;;31.63;;
24739;SDS011;45234;48.148;17.128;2022-12-18T16:12:05;68.90;;;32.10;;
24739;SDS011;45234;48.148;17.128;2022-12-18T16:14:36;65.72;;;31.83;;
24739;SDS011;45234;48.148;17.128;2022-12-18T16:17:08;71.70;;;31.77;;
24739;SDS011;45234;48.148;17.128;2022-12-18T16:19:37;66.80;;;30.33;;
24739;SDS011;45234;48.148;17.128;2022-12-18T16:22:04;69.88;;;31.25;;
24739;SDS011;45234;48.148;17.128;2022-12-18T16:24:33;64.53;;;28.50;;
24739;SDS011;45234;48.148;17.128;2022-12-18T16:27:03;66.13;;;31.80;;
24739;SDS011;45234;48.148;17.128;2022-12-18T16:29:29;66.22;;;30.38;;
24739;SDS011;45234;48.148;17.128;2022-12-18T16:32:00;70.38;;;32.13;;
24739;SDS011;45234;48.148;17.128;2022-12-18T16:34:29;73.00;;;33.30;;
24739;SDS011;45234;48.148;17.128;2022-12-18T16:37:02;67.00;;;31.98;;
24739;SDS011;45234;48.148;17.128;2022-12-18T16:39:36;71.25;;;31.88;;